createdAt,value
2023-01-26T00:00:14.575Z,20.13
2023-01-26T00:02:41.259Z,29.27
2023-01-26T00:05:09.690Z,21.23
2023-01-26T00:07:36.325Z,20.23
2023-01-26T00:10:03.474Z,24.20
2023-01-26T00:12:30.097Z,18.70
2023-01-26T00:14:56.752Z,21.30
2023-01-26T00:17:23.377Z,22.20
2023-01-26T00:19:50.036Z,21.23
2023-01-26T00:22:17.981Z,19.13
2023-01-26T00:24:45.182Z,14.87
2023-01-26T00:27:11.821Z,18.00
2023-01-26T00:29:38.471Z,15.73
2023-01-26T00:32:05.899Z,18.23
2023-01-26T00:34:32.574Z,17.03
2023-01-26T00:36:59.201Z,13.97
2023-01-26T00:39:27.244Z,14.10
2023-01-26T00:41:53.862Z,17.60
2023-01-26T00:44:20.514Z,14.30
2023-01-26T00:46:47.368Z,18.70
2023-01-26T00:49:14.039Z,15.83
2023-01-26T00:51:40.686Z,13.83
2023-01-26T00:54:07.340Z,12.37
2023-01-26T00:56:35.345Z,11.67
2023-01-26T00:59:02.016Z,15.40
2023-01-26T01:01:28.758Z,12.23
2023-01-26T01:03:55.387Z,9.20
2023-01-26T01:06:22.118Z,10.63
2023-01-26T01:08:48.744Z,8.70
2023-01-26T01:11:15.434Z,11.90
2023-01-26T01:13:43.650Z,8.90
2023-01-26T01:16:12.162Z,11.23
2023-01-26T01:18:39.006Z,9.13
2023-01-26T01:21:07.141Z,10.90
2023-01-26T01:23:33.802Z,12.60
2023-01-26T01:26:01.232Z,14.40
2023-01-26T01:28:28.157Z,14.63
2023-01-26T01:30:56.169Z,9.77
2023-01-26T01:33:23.661Z,10.87
2023-01-26T01:35:57.228Z,9.90
2023-01-26T01:38:23.895Z,11.50
2023-01-26T01:40:50.577Z,8.00
2023-01-26T01:43:17.359Z,9.23
2023-01-26T01:45:45.544Z,10.90
2023-01-26T01:48:20.428Z,15.20
2023-01-26T01:50:50.555Z,11.50
2023-01-26T01:53:21.807Z,11.13
2023-01-26T01:55:48.490Z,10.03
2023-01-26T01:58:15.502Z,9.53
2023-01-26T02:00:42.297Z,10.97
2023-01-26T02:03:09.857Z,9.10
2023-01-26T02:05:45.970Z,9.57
2023-01-26T02:08:14.446Z,9.87
2023-01-26T02:10:42.147Z,8.80
2023-01-26T02:13:09.269Z,8.90
2023-01-26T02:15:36.433Z,10.60
2023-01-26T02:18:04.799Z,9.70
2023-01-26T02:20:43.197Z,11.00
2023-01-26T02:23:20.883Z,10.70
2023-01-26T02:26:15.264Z,8.83
2023-01-26T02:28:44.542Z,9.87
2023-01-26T02:31:12.411Z,8.87
2023-01-26T02:33:39.847Z,9.40
2023-01-26T02:36:08.310Z,5.97
2023-01-26T02:38:41.031Z,8.27
2023-01-26T02:41:10.890Z,6.37
2023-01-26T02:43:37.772Z,9.20
2023-01-26T02:46:05.911Z,6.87
2023-01-26T02:48:33.200Z,10.70
2023-01-26T02:50:59.875Z,10.33
2023-01-26T02:53:26.547Z,7.00
2023-01-26T02:55:53.215Z,8.27
2023-01-26T02:58:19.859Z,8.23
2023-01-26T03:00:46.498Z,8.20
2023-01-26T03:03:17.877Z,10.17
2023-01-26T03:05:44.571Z,9.87
2023-01-26T03:08:11.245Z,10.40
2023-01-26T03:10:38.200Z,9.70
2023-01-26T03:13:04.903Z,7.43
2023-01-26T03:15:31.538Z,9.87
2023-01-26T03:18:01.890Z,10.63
2023-01-26T03:20:29.854Z,12.67
2023-01-26T03:22:56.787Z,12.87
2023-01-26T03:25:23.439Z,12.70
2023-01-26T03:27:50.143Z,10.57
2023-01-26T03:30:18.931Z,10.43
2023-01-26T03:32:45.628Z,10.57
2023-01-26T03:35:12.347Z,11.63
2023-01-26T03:37:40.477Z,8.18
2023-01-26T03:40:09.838Z,12.43
2023-01-26T03:42:37.837Z,10.73
2023-01-26T03:45:05.495Z,10.97
2023-01-26T03:47:32.554Z,12.23
2023-01-26T03:49:59.175Z,12.43
2023-01-26T03:52:25.875Z,9.23
2023-01-26T03:54:54.027Z,13.87
2023-01-26T03:57:20.684Z,10.47
2023-01-26T03:59:47.368Z,8.70
2023-01-26T04:02:14.063Z,11.27
2023-01-26T04:04:40.779Z,12.27
2023-01-26T04:07:07.448Z,10.63
2023-01-26T04:09:34.952Z,9.53
2023-01-26T04:12:03.743Z,8.57
2023-01-26T04:14:30.421Z,9.87
2023-01-26T04:17:02.608Z,9.00
2023-01-26T04:19:29.255Z,10.53
2023-01-26T04:21:56.059Z,12.77
2023-01-26T04:24:22.863Z,11.30
2023-01-26T04:26:49.585Z,13.93
2023-01-26T04:29:17.559Z,13.57
2023-01-26T04:31:44.344Z,18.50
2023-01-26T04:34:12.640Z,17.73
2023-01-26T04:36:39.414Z,14.80
2023-01-26T04:39:06.224Z,22.37
2023-01-26T04:41:32.946Z,18.43
2023-01-26T04:43:59.707Z,18.43
2023-01-26T04:46:27.715Z,18.30
2023-01-26T04:48:54.402Z,17.10
2023-01-26T04:51:22.189Z,16.60
2023-01-26T04:53:49.748Z,18.73
2023-01-26T04:56:21.903Z,16.60
2023-01-26T04:58:48.830Z,17.10
2023-01-26T05:01:15.547Z,17.00
2023-01-26T05:03:43.737Z,17.15
2023-01-26T05:06:10.772Z,16.50
2023-01-26T05:08:38.142Z,16.00
2023-01-26T05:11:05.296Z,17.10
2023-01-26T05:13:32.385Z,16.52
2023-01-26T05:15:59.053Z,16.73
2023-01-26T05:18:25.767Z,17.33
2023-01-26T05:20:54.555Z,13.93
2023-01-26T05:23:21.198Z,19.70
2023-01-26T05:25:47.958Z,15.40
2023-01-26T05:28:14.654Z,20.87
2023-01-26T05:30:41.316Z,19.47
2023-01-26T05:33:10.804Z,15.77
2023-01-26T05:35:37.678Z,15.53
2023-01-26T05:38:05.677Z,19.57
2023-01-26T05:40:32.326Z,19.83
2023-01-26T05:42:59.329Z,20.30
2023-01-26T05:45:25.998Z,21.80
2023-01-26T05:47:52.680Z,20.07
2023-01-26T05:50:19.542Z,15.77
2023-01-26T05:52:46.220Z,22.10
2023-01-26T05:55:14.907Z,23.50
2023-01-26T05:57:41.795Z,18.60
2023-01-26T06:00:10.682Z,19.13
2023-01-26T06:02:37.590Z,14.27
2023-01-26T06:05:05.077Z,19.83
2023-01-26T06:07:31.779Z,20.60
2023-01-26T06:09:58.394Z,23.10
2023-01-26T06:12:26.535Z,22.07
2023-01-26T06:14:53.224Z,16.57
2023-01-26T06:17:19.865Z,23.30
2023-01-26T06:19:46.675Z,23.27
2023-01-26T06:22:13.879Z,25.30
2023-01-26T06:24:41.048Z,28.80
2023-01-26T06:27:11.730Z,21.50
2023-01-26T06:29:39.755Z,24.97
2023-01-26T06:32:06.475Z,19.83
2023-01-26T06:34:33.140Z,24.53
2023-01-26T06:37:00.032Z,22.77
2023-01-26T06:39:26.800Z,28.73
2023-01-26T06:41:53.454Z,21.40
2023-01-26T06:44:20.121Z,23.53
2023-01-26T06:46:48.146Z,21.27
2023-01-26T06:49:14.818Z,26.10
2023-01-26T06:51:58.935Z,27.60
2023-01-26T06:54:25.684Z,24.53
2023-01-26T06:56:52.355Z,25.73
2023-01-26T06:59:19.030Z,24.60
2023-01-26T07:01:48.608Z,29.63
2023-01-26T07:04:15.598Z,31.30
2023-01-26T07:06:42.375Z,28.87
2023-01-26T07:09:09.263Z,24.17
2023-01-26T07:11:36.009Z,25.00
2023-01-26T07:14:02.670Z,25.23
2023-01-26T07:16:30.199Z,19.17
2023-01-26T07:18:59.379Z,22.93
2023-01-26T07:21:26.264Z,20.57
2023-01-26T07:23:53.058Z,13.50
2023-01-26T07:26:20.946Z,19.63
2023-01-26T07:28:47.640Z,26.80
2023-01-26T07:31:14.774Z,31.27
2023-01-26T07:33:41.583Z,30.57
2023-01-26T07:36:10.082Z,31.80
2023-01-26T07:38:36.949Z,25.20
2023-01-26T07:41:09.022Z,22.27
2023-01-26T07:43:36.817Z,25.90
2023-01-26T07:46:04.062Z,18.20
2023-01-26T07:48:31.026Z,25.70
2023-01-26T07:51:02.125Z,26.33
2023-01-26T07:53:30.925Z,26.93
2023-01-26T07:56:16.190Z,31.43
2023-01-26T07:58:43.065Z,31.80
2023-01-26T08:01:11.446Z,33.13
2023-01-26T08:03:38.515Z,29.90
2023-01-26T08:06:06.195Z,30.20
2023-01-26T08:08:35.258Z,33.40
2023-01-26T08:11:02.586Z,34.37
2023-01-26T08:13:35.386Z,24.90
2023-01-26T08:16:04.262Z,26.27
2023-01-26T08:18:31.282Z,42.90
2023-01-26T08:20:58.534Z,41.93
2023-01-26T08:23:25.359Z,41.33
2023-01-26T08:25:53.501Z,43.60
2023-01-26T08:28:21.266Z,45.30
2023-01-26T08:30:48.118Z,38.78
2023-01-26T08:33:14.910Z,37.50
2023-01-26T08:35:41.741Z,31.80
2023-01-26T08:38:08.430Z,29.73
2023-01-26T08:40:35.156Z,33.17
2023-01-26T08:43:03.631Z,33.13
2023-01-26T08:45:33.295Z,30.23
2023-01-26T08:48:00.046Z,25.47
2023-01-26T08:50:26.853Z,27.07
2023-01-26T08:52:56.089Z,24.37
2023-01-26T08:55:22.732Z,26.77
2023-01-26T08:57:52.561Z,28.63
2023-01-26T09:00:21.786Z,26.93
2023-01-26T09:02:48.581Z,26.53
2023-01-26T09:05:15.513Z,28.73
2023-01-26T09:07:42.210Z,29.60
2023-01-26T09:10:10.513Z,28.45
2023-01-26T09:12:39.470Z,28.13
2023-01-26T09:15:08.691Z,28.70
2023-01-26T09:17:37.082Z,25.40
2023-01-26T09:20:04.639Z,31.37
2023-01-26T09:22:31.351Z,28.17
2023-01-26T09:24:58.308Z,28.10
2023-01-26T09:27:25.072Z,35.83
2023-01-26T09:29:51.878Z,38.30
2023-01-26T09:32:18.578Z,37.73
2023-01-26T09:34:46.719Z,26.47
2023-01-26T09:37:13.667Z,21.73
2023-01-26T09:39:40.523Z,30.87
2023-01-26T09:42:45.791Z,23.00
2023-01-26T09:45:29.131Z,18.23
2023-01-26T09:48:09.358Z,17.73
2023-01-26T09:50:42.971Z,19.27
2023-01-26T09:53:14.919Z,17.48
2023-01-26T09:55:43.311Z,14.80
2023-01-26T09:58:15.804Z,15.80
2023-01-26T10:00:47.658Z,11.10
2023-01-26T10:03:20.678Z,18.03
2023-01-26T10:05:54.220Z,12.98
2023-01-26T10:08:21.805Z,18.47
2023-01-26T10:10:50.454Z,19.43
2023-01-26T10:13:18.342Z,17.80
2023-01-26T10:15:48.478Z,20.63
2023-01-26T10:18:19.622Z,13.90
2023-01-26T10:20:51.328Z,15.33
2023-01-26T10:23:22.236Z,15.23
2023-01-26T10:25:50.736Z,15.13
2023-01-26T10:28:19.247Z,21.90
2023-01-26T10:30:47.541Z,16.80
2023-01-26T10:33:18.254Z,18.77
2023-01-26T10:35:45.259Z,18.58
2023-01-26T10:38:44.012Z,15.70
2023-01-26T10:41:26.188Z,18.93
2023-01-26T10:43:55.180Z,23.10
2023-01-26T10:46:30.762Z,18.20
2023-01-26T10:48:59.567Z,19.30
2023-01-26T10:51:28.738Z,17.07
2023-01-26T10:54:20.347Z,20.93
2023-01-26T10:56:50.386Z,15.87
2023-01-26T10:59:27.137Z,16.53
2023-01-26T11:01:56.561Z,21.93
2023-01-26T11:04:28.511Z,14.70
2023-01-26T11:06:55.343Z,16.53
2023-01-26T11:09:26.575Z,16.05
2023-01-26T11:11:58.947Z,17.50
2023-01-26T11:14:25.693Z,12.20
2023-01-26T11:16:58.746Z,13.67
2023-01-26T11:19:48.129Z,18.73
2023-01-26T11:22:19.457Z,19.13
2023-01-26T11:24:59.074Z,18.20
2023-01-26T11:27:42.762Z,17.27
2023-01-26T11:30:38.092Z,22.37
2023-01-26T11:33:12.033Z,23.03
2023-01-26T11:35:48.111Z,19.10
2023-01-26T11:38:26.865Z,18.67
2023-01-26T11:41:01.982Z,17.73
2023-01-26T11:43:53.448Z,13.53
2023-01-26T11:46:37.047Z,19.20
2023-01-26T11:49:15.596Z,14.67
2023-01-26T11:51:51.600Z,20.80
2023-01-26T11:54:46.242Z,24.80
2023-01-26T11:57:25.071Z,14.63
2023-01-26T11:59:58.047Z,26.10
2023-01-26T12:02:30.762Z,21.13
2023-01-26T12:05:00.633Z,20.30
2023-01-26T12:07:30.511Z,17.77
2023-01-26T12:10:02.027Z,17.63
2023-01-26T12:12:38.271Z,29.00
2023-01-26T12:15:13.418Z,19.87
2023-01-26T12:17:50.784Z,20.40
2023-01-26T12:20:28.667Z,23.80
2023-01-26T12:23:02.970Z,21.43
2023-01-26T12:25:34.419Z,17.97
2023-01-26T12:28:12.064Z,17.03
2023-01-26T12:30:46.573Z,15.37
2023-01-26T12:33:13.420Z,21.37
2023-01-26T12:35:50.812Z,26.67
2023-01-26T12:38:20.343Z,18.10
2023-01-26T12:40:58.378Z,19.33
2023-01-26T12:43:44.900Z,23.27
2023-01-26T12:46:14.458Z,21.90
2023-01-26T12:48:46.078Z,25.57
2023-01-26T12:51:19.624Z,19.53
2023-01-26T12:53:54.677Z,21.93
2023-01-26T12:56:26.356Z,15.83
2023-01-26T12:58:57.535Z,21.20
2023-01-26T13:01:27.222Z,21.67
2023-01-26T13:03:56.496Z,21.80
2023-01-26T13:06:24.795Z,25.63
2023-01-26T13:09:00.709Z,15.10
2023-01-26T13:11:55.351Z,18.53
2023-01-26T13:14:30.355Z,21.77
2023-01-26T13:16:57.555Z,19.97
2023-01-26T13:19:50.358Z,21.07
2023-01-26T13:22:39.404Z,24.77
2023-01-26T13:25:14.275Z,25.13
2023-01-26T13:27:45.885Z,22.80
2023-01-26T13:30:34.103Z,24.20
2023-01-26T13:33:17.547Z,23.07
2023-01-26T13:35:45.767Z,23.00
2023-01-26T13:38:20.214Z,22.10
2023-01-26T13:40:49.114Z,24.30
2023-01-26T13:43:27.023Z,22.27
2023-01-26T13:46:10.762Z,23.07
2023-01-26T13:48:43.379Z,24.00
2023-01-26T13:51:16.367Z,17.43
2023-01-26T13:53:47.474Z,25.20
2023-01-26T13:56:24.687Z,19.27
2023-01-26T13:58:52.054Z,20.83
2023-01-26T14:01:21.215Z,20.13
2023-01-26T14:03:48.144Z,21.20
2023-01-26T14:06:17.477Z,20.23
2023-01-26T14:08:50.914Z,18.03
2023-01-26T14:11:20.011Z,17.53
2023-01-26T14:13:50.716Z,20.47
2023-01-26T14:16:26.507Z,24.40
2023-01-26T14:19:04.457Z,20.17
2023-01-26T14:21:31.472Z,21.47
2023-01-26T14:23:58.173Z,17.30
2023-01-26T14:26:30.490Z,20.10
2023-01-26T14:28:58.077Z,21.07
2023-01-26T14:31:27.408Z,26.10
2023-01-26T14:33:56.306Z,22.87
2023-01-26T14:36:24.448Z,27.03
2023-01-26T14:38:53.632Z,22.53
2023-01-26T14:41:23.602Z,22.83
2023-01-26T14:43:52.851Z,16.47
2023-01-26T14:46:27.909Z,25.43
2023-01-26T14:48:59.830Z,23.57
2023-01-26T14:51:27.242Z,23.87
2023-01-26T14:53:57.132Z,21.57
2023-01-26T14:56:31.280Z,23.47
2023-01-26T14:58:58.196Z,30.27
2023-01-26T15:01:27.542Z,26.57
2023-01-26T15:03:59.833Z,27.63
2023-01-26T15:06:28.089Z,32.20
2023-01-26T15:08:58.283Z,33.40
2023-01-26T15:11:28.055Z,38.67
2023-01-26T15:13:55.614Z,33.13
2023-01-26T15:16:23.807Z,27.83
2023-01-26T15:19:00.791Z,30.50
2023-01-26T15:21:32.103Z,32.97
2023-01-26T15:23:58.815Z,29.60
2023-01-26T15:26:27.813Z,35.23
2023-01-26T15:28:56.208Z,31.97
2023-01-26T15:31:29.022Z,31.73
2023-01-26T15:33:56.714Z,32.67
2023-01-26T15:36:31.167Z,44.27
2023-01-26T15:39:11.527Z,36.77
2023-01-26T15:41:38.788Z,42.30
2023-01-26T15:44:05.613Z,42.03
2023-01-26T15:46:32.437Z,37.13
2023-01-26T15:48:59.246Z,37.40
2023-01-26T15:51:27.346Z,32.40
2023-01-26T15:53:54.080Z,34.70
2023-01-26T15:56:20.753Z,37.30
2023-01-26T15:58:47.507Z,37.63
2023-01-26T16:01:16.842Z,28.77
2023-01-26T16:03:43.642Z,29.70
2023-01-26T16:06:20.958Z,35.90
2023-01-26T16:08:49.505Z,30.40
2023-01-26T16:11:17.240Z,26.70
2023-01-26T16:13:54.017Z,27.13
2023-01-26T16:16:29.106Z,26.87
2023-01-26T16:18:56.486Z,39.80
2023-01-26T16:21:25.330Z,36.50
2023-01-26T16:23:53.388Z,40.03
2023-01-26T16:26:20.215Z,44.40
2023-01-26T16:28:47.281Z,37.97
2023-01-26T16:31:16.500Z,48.13
2023-01-26T16:33:43.297Z,38.77
2023-01-26T16:36:11.767Z,36.37
2023-01-26T16:38:38.766Z,41.50
2023-01-26T16:41:12.574Z,40.13
2023-01-26T16:43:41.059Z,39.87
2023-01-26T16:46:07.785Z,39.87
2023-01-26T16:48:34.475Z,36.80
2023-01-26T16:51:10.599Z,39.27
2023-01-26T16:53:37.311Z,44.43
2023-01-26T16:56:06.339Z,48.33
2023-01-26T16:58:33.086Z,43.43
2023-01-26T17:01:00.288Z,51.93
2023-01-26T17:03:27.023Z,39.97
2023-01-26T17:05:55.164Z,35.83
2023-01-26T17:08:21.928Z,44.97
2023-01-26T17:11:01.209Z,47.53
2023-01-26T17:13:30.785Z,42.97
2023-01-26T17:15:58.126Z,40.17
2023-01-26T17:18:25.270Z,38.43
2023-01-26T17:20:51.942Z,35.93
2023-01-26T17:23:19.351Z,29.33
2023-01-26T17:25:45.999Z,29.77
2023-01-26T17:28:12.625Z,36.13
2023-01-26T17:30:40.638Z,37.37
2023-01-26T17:33:07.389Z,43.40
2023-01-26T17:35:34.106Z,45.27
2023-01-26T17:38:00.757Z,46.60
2023-01-26T17:40:27.479Z,41.87
2023-01-26T17:42:54.170Z,39.80
2023-01-26T17:45:20.833Z,41.53
2023-01-26T17:47:48.853Z,38.77
2023-01-26T17:50:16.103Z,29.30
2023-01-26T17:52:42.782Z,37.40
2023-01-26T17:55:09.666Z,48.73
2023-01-26T17:57:36.492Z,39.73
2023-01-26T18:00:04.537Z,42.47
2023-01-26T18:02:31.191Z,36.07
2023-01-26T18:04:59.254Z,38.27
2023-01-26T18:07:25.950Z,36.87
2023-01-26T18:09:52.605Z,33.87
2023-01-26T18:12:19.266Z,32.60
2023-01-26T18:14:45.988Z,38.73
2023-01-26T18:17:12.641Z,34.53
2023-01-26T18:19:39.285Z,36.93
2023-01-26T18:22:07.224Z,35.83
2023-01-26T18:24:33.855Z,34.13
2023-01-26T18:27:00.495Z,34.17
2023-01-26T18:29:27.141Z,33.03
2023-01-26T18:31:53.886Z,36.03
2023-01-26T18:34:20.547Z,30.13
2023-01-26T18:36:47.239Z,34.33
2023-01-26T18:39:15.324Z,37.13
2023-01-26T18:41:42.116Z,34.07
2023-01-26T18:44:09.123Z,29.60
2023-01-26T18:46:35.825Z,37.13
2023-01-26T18:49:02.586Z,29.67
2023-01-26T18:51:30.971Z,40.87
2023-01-26T18:53:57.971Z,38.23
2023-01-26T18:56:26.392Z,43.23
2023-01-26T18:58:53.459Z,28.47
2023-01-26T19:01:21.293Z,37.43
2023-01-26T19:03:48.405Z,37.63
2023-01-26T19:06:16.685Z,33.33
2023-01-26T19:08:43.580Z,40.87
2023-01-26T19:11:10.220Z,41.60
2023-01-26T19:13:38.214Z,36.30
2023-01-26T19:16:07.357Z,29.33
2023-01-26T19:18:35.320Z,33.80
2023-01-26T19:21:04.245Z,31.37
2023-01-26T19:23:31.287Z,30.03
2023-01-26T19:25:58.099Z,35.90
2023-01-26T19:28:24.888Z,38.57
2023-01-26T19:31:01.182Z,39.03
2023-01-26T19:33:27.941Z,29.73
2023-01-26T19:35:54.821Z,33.00
2023-01-26T19:38:22.144Z,33.00
2023-01-26T19:40:50.949Z,35.17
2023-01-26T19:43:18.172Z,30.97
2023-01-26T19:45:48.005Z,30.50
2023-01-26T19:48:16.131Z,27.90
2023-01-26T19:50:43.037Z,29.00
2023-01-26T19:53:09.718Z,33.73
2023-01-26T19:55:36.412Z,31.30
2023-01-26T19:58:03.111Z,39.60
2023-01-26T20:00:29.788Z,31.23
2023-01-26T20:02:56.422Z,25.93
2023-01-26T20:05:24.412Z,32.93
2023-01-26T20:07:51.074Z,33.00
2023-01-26T20:10:17.864Z,27.37
2023-01-26T20:12:44.536Z,24.00
2023-01-26T20:15:11.871Z,24.70
2023-01-26T20:17:38.903Z,26.70
2023-01-26T20:20:06.835Z,34.90
2023-01-26T20:22:35.387Z,27.07
2023-01-26T20:25:02.025Z,28.27
2023-01-26T20:27:28.667Z,24.53
2023-01-26T20:29:55.432Z,30.40
2023-01-26T20:32:22.123Z,25.90
2023-01-26T20:34:48.759Z,31.00
2023-01-26T20:37:15.434Z,28.07
2023-01-26T20:39:46.002Z,27.70
2023-01-26T20:42:13.518Z,27.97
2023-01-26T20:44:43.073Z,26.33
2023-01-26T20:47:10.213Z,26.70
2023-01-26T20:49:37.030Z,30.93
2023-01-26T20:52:04.380Z,26.80
2023-01-26T20:54:31.050Z,20.67
2023-01-26T20:56:59.030Z,23.30
2023-01-26T20:59:25.775Z,21.87
2023-01-26T21:01:52.569Z,25.70
2023-01-26T21:04:19.285Z,25.07
2023-01-26T21:06:45.991Z,29.97
2023-01-26T21:09:13.159Z,25.80
2023-01-26T21:11:39.823Z,24.97
2023-01-26T21:14:11.207Z,24.73
2023-01-26T21:16:38.002Z,23.20
2023-01-26T21:19:04.709Z,21.33
2023-01-26T21:21:31.437Z,22.00
2023-01-26T21:23:58.248Z,24.60
2023-01-26T21:26:26.197Z,23.50
2023-01-26T21:28:54.115Z,17.27
2023-01-26T21:31:23.934Z,17.83
2023-01-26T21:33:51.050Z,23.57
2023-01-26T21:36:19.648Z,19.90
2023-01-26T21:38:48.502Z,18.87
2023-01-26T21:41:17.307Z,18.27
2023-01-26T21:43:43.953Z,22.90
2023-01-26T21:46:10.678Z,19.90
2023-01-26T21:48:38.752Z,17.30
2023-01-26T21:51:05.674Z,20.53
2023-01-26T21:53:32.353Z,22.27
2023-01-26T21:55:59.017Z,22.77
2023-01-26T21:58:25.718Z,20.20
2023-01-26T22:00:52.512Z,20.07
2023-01-26T22:03:19.288Z,21.47
2023-01-26T22:05:52.704Z,19.03
2023-01-26T22:08:19.349Z,20.70
2023-01-26T22:10:53.068Z,21.23
2023-01-26T22:13:19.772Z,17.53
2023-01-26T22:15:46.418Z,16.73
2023-01-26T22:18:13.130Z,20.20
2023-01-26T22:20:39.790Z,24.03
2023-01-26T22:23:07.753Z,27.60
2023-01-26T22:25:36.870Z,19.87
2023-01-26T22:28:04.050Z,22.37
2023-01-26T22:30:30.857Z,16.57
2023-01-26T22:32:57.628Z,14.70
2023-01-26T22:35:24.292Z,22.90
2023-01-26T22:37:50.969Z,19.07
2023-01-26T22:40:19.544Z,19.97
2023-01-26T22:42:46.176Z,17.57
2023-01-26T22:45:13.168Z,16.53
2023-01-26T22:47:39.897Z,20.87
2023-01-26T22:50:07.557Z,15.03
2023-01-26T22:52:34.294Z,18.80
2023-01-26T22:55:00.929Z,18.63
2023-01-26T22:57:28.970Z,19.80
2023-01-26T22:59:55.606Z,18.83
2023-01-26T23:02:22.377Z,18.17
2023-01-26T23:04:49.039Z,17.57
2023-01-26T23:07:15.881Z,20.27
2023-01-26T23:09:42.577Z,17.83
2023-01-26T23:12:09.275Z,14.17
2023-01-26T23:14:37.514Z,16.50
2023-01-26T23:17:04.368Z,18.73
2023-01-26T23:19:31.087Z,21.27
2023-01-26T23:21:57.697Z,17.63
2023-01-26T23:24:24.474Z,16.80
2023-01-26T23:26:51.165Z,21.13
2023-01-26T23:29:17.811Z,16.23
2023-01-26T23:31:45.940Z,18.60
2023-01-26T23:34:12.694Z,16.57
2023-01-26T23:36:39.328Z,22.60
2023-01-26T23:39:05.999Z,18.60
2023-01-26T23:41:32.678Z,21.03
2023-01-26T23:43:59.341Z,16.53
2023-01-26T23:46:26.069Z,17.40
2023-01-26T23:48:54.079Z,20.90
2023-01-26T23:51:20.748Z,19.07
2023-01-26T23:53:47.389Z,17.73
2023-01-26T23:56:15.663Z,19.10
2023-01-26T23:58:42.302Z,16.77
